Time;durP1;ratioP1;P1;durP2;ratioP2;P2;SDS_P1;SDS_P2;PMS_P1;PMS_P2;Temp;Humidity;BMP_temperature;BMP_pressure;BME280_temperature;BME280_humidity;BME280_pressure;Samples;Min_cycle;Max_cycle;Signal;HPM_P1;HPM_P2
2021/09/07 00:06:14;;;;;;;7.63;2.50;;;26.50;38.60;;;;;;20949679;27;80709;-72
2021/09/07 00:16:16;;;;;;;12.32;3.10;;;26.40;39.20;;;;;;20949933;27;80784;-71
2021/09/07 00:26:18;;;;;;;5.38;2.85;;;26.20;40.00;;;;;;20966425;27;80785;-70
2021/09/07 00:36:20;;;;;;;8.55;3.35;;;26.00;41.50;;;;;;20966327;27;81254;-70
2021/09/07 00:46:21;;;;;;;9.02;2.60;;;26.00;41.10;;;;;;20965637;27;79987;-70
2021/09/07 00:56:24;;;;;;;8.90;2.63;;;25.90;41.00;;;;;;20966115;27;80935;-71
2021/09/07 01:06:26;;;;;;;9.35;2.40;;;25.80;43.10;;;;;;20963742;27;81284;-72
2021/09/07 01:16:29;;;;;;;7.40;2.40;;;25.50;43.80;;;;;;20963881;27;81849;-71
2021/09/07 01:26:30;;;;;;;8.57;3.28;;;25.40;43.80;;;;;;20964010;27;81496;-70
2021/09/07 01:36:32;;;;;;;9.32;3.33;;;25.30;44.50;;;;;;20944770;27;81523;-70
2021/09/07 01:46:35;;;;;;;5.43;2.60;;;25.10;44.50;;;;;;20976661;27;81569;-70
2021/09/07 01:56:40;;;;;;;12.35;3.00;;;25.00;47.10;;;;;;20976147;27;80797;-72
2021/09/07 02:06:42;;;;;;;7.95;2.97;;;24.80;45.00;;;;;;20957492;27;80206;-71
2021/09/07 02:16:44;;;;;;;6.60;2.83;;;24.60;47.40;;;;;;20975139;27;80846;-71
2021/09/07 02:26:46;;;;;;;8.57;3.58;;;24.50;48.40;;;;;;20957377;27;81091;-70
2021/09/07 02:36:48;;;;;;;5.50;2.38;;;24.30;49.20;;;;;;20974223;27;80758;-70
2021/09/07 02:46:52;;;;;;;10.00;3.15;;;24.20;49.00;;;;;;20974630;27;80862;-70
2021/09/07 02:56:54;;;;;;;11.05;3.55;;;24.00;51.40;;;;;;20960464;27;81364;-70
2021/09/07 03:06:55;;;;;;;7.85;2.22;;;23.90;51.00;;;;;;20966821;27;80738;-70
2021/09/07 03:16:57;;;;;;;9.98;3.38;;;23.90;48.20;;;;;;20971086;27;80723;-70
2021/09/07 03:27:19;;;;;;;8.13;2.70;;;24.00;49.50;;;;;;20970406;27;82408;-70
2021/09/07 03:37:40;;;;;;;7.63;2.37;;;23.90;49.60;;;;;;20970330;27;82845;-71
2021/09/07 03:47:44;;;;;;;11.07;2.78;;;23.80;50.50;;;;;;20971155;27;82397;-71
2021/09/07 03:57:46;;;;;;;6.82;2.47;;;23.70;50.90;;;;;;20951225;27;81913;-70
2021/09/07 04:07:49;;;;;;;8.73;2.63;;;23.60;50.70;;;;;;20950336;27;81870;-68
2021/09/07 04:17:51;;;;;;;8.35;2.67;;;23.60;50.10;;;;;;20968795;27;80897;-69
2021/09/07 04:27:55;;;;;;;11.00;2.88;;;23.50;50.90;;;;;;20968318;27;81862;-70
2021/09/07 04:37:57;;;;;;;10.18;3.47;;;23.50;49.40;;;;;;20967221;27;81895;-70
2021/09/07 04:48:07;;;;;;;8.43;3.50;;;23.40;50.90;;;;;;20948959;27;80780;-70
2021/09/07 04:58:08;;;;;;;12.88;3.53;;;23.30;51.90;;;;;;20965429;27;81149;-70
2021/09/07 05:08:09;;;;;;;10.43;3.28;;;23.20;52.90;;;;;;20965918;27;80534;-70
2021/09/07 05:18:12;;;;;;;12.18;3.72;;;23.00;52.80;;;;;;20955778;27;80762;-69
2021/09/07 05:28:13;;;;;;;9.30;3.90;;;23.00;54.30;;;;;;20978746;27;80589;-68
2021/09/07 05:38:15;;;;;;;11.30;3.88;;;22.90;56.80;;;;;;20959658;27;80920;-68
2021/09/07 05:48:18;;;;;;;9.02;3.08;;;22.80;55.60;;;;;;20961186;27;81961;-71
2021/09/07 05:58:20;;;;;;;21.40;6.10;;;22.80;55.40;;;;;;20959632;27;80577;-72
2021/09/07 06:08:23;;;;;;;20.25;4.50;;;22.70;53.50;;;;;;20977396;27;82061;-71
2021/09/07 06:18:26;;;;;;;16.40;4.80;;;22.80;53.20;;;;;;20977461;27;81950;-73
2021/09/07 06:28:29;;;;;;;15.98;4.53;;;22.80;54.30;;;;;;20975088;27;80740;-70
2021/09/07 06:38:31;;;;;;;10.15;3.83;;;22.90;53.20;;;;;;20958832;27;80525;-70
2021/09/07 06:48:37;;;;;;;9.95;3.80;;;23.00;52.70;;;;;;20957129;27;80234;-73
2021/09/07 06:58:39;;;;;;;16.73;4.18;;;23.10;52.70;;;;;;20972459;27;80983;-69
2021/09/07 07:08:42;;;;;;;14.35;5.38;;;23.20;52.30;;;;;;20973644;27;80735;-69
2021/09/07 07:18:43;;;;;;;15.65;4.43;;;23.30;52.20;;;;;;20954586;27;80648;-69
2021/09/07 07:28:45;;;;;;;14.38;4.85;;;23.40;51.80;;;;;;20974051;27;80774;-68
2021/09/07 07:38:47;;;;;;;17.85;5.70;;;23.50;52.20;;;;;;20955865;27;81878;-67
2021/09/07 07:48:49;;;;;;;10.30;4.45;;;23.60;52.30;;;;;;20973911;27;80750;-69
2021/09/07 07:58:51;;;;;;;16.42;4.88;;;23.90;50.90;;;;;;20972228;27;81915;-68
2021/09/07 08:08:55;;;;;;;14.52;4.80;;;24.20;50.60;;;;;;20954289;27;80490;-69
2021/09/07 08:18:57;;;;;;;13.60;4.45;;;24.60;50.80;;;;;;20970410;27;80842;-69
2021/09/07 08:28:58;;;;;;;10.95;3.30;;;24.90;48.60;;;;;;20951967;27;80629;-68
2021/09/07 08:39:01;;;;;;;9.60;3.00;;;25.20;46.30;;;;;;20969276;27;81038;-68
2021/09/07 08:49:04;;;;;;;6.85;2.97;;;25.70;45.00;;;;;;20972342;27;80644;-68
2021/09/07 08:59:07;;;;;;;11.57;2.80;;;26.10;42.80;;;;;;20983840;27;79922;-68
2021/09/07 09:09:09;;;;;;;10.20;2.90;;;26.40;42.00;;;;;;20965571;27;80802;-67
2021/09/07 09:19:11;;;;;;;7.15;2.03;;;27.10;40.90;;;;;;20982090;27;81827;-68
2021/09/07 09:29:29;;;;;;;6.88;1.98;;;27.90;38.80;;;;;;20980899;27;80587;-67
2021/09/07 09:39:46;;;;;;;7.22;2.33;;;28.00;37.50;;;;;;20981541;27;82208;-68
2021/09/07 09:49:49;;;;;;;9.40;1.88;;;28.60;36.30;;;;;;20980833;27;81685;-68
2021/09/07 09:59:54;;;;;;;7.93;2.20;;;29.50;35.00;;;;;;20961336;27;80896;-68
2021/09/07 10:09:57;;;;;;;13.55;3.08;;;29.70;34.70;;;;;;20961591;27;81575;-68
2021/09/07 10:20:10;;;;;;;10.43;2.40;;;30.60;33.50;;;;;;20978369;27;80776;-69
2021/09/07 10:30:54;;;;;;;9.93;2.83;;;32.60;31.00;;;;;;20960088;27;81574;-68
2021/09/07 10:40:57;;;;;;;8.07;2.22;;;34.00;29.40;;;;;;20974972;27;80831;-69
2021/09/07 10:51:03;;;;;;;7.10;2.40;;;35.00;27.40;;;;;;20959200;27;81566;-65
2021/09/07 11:01:30;;;;;;;10.60;2.45;;;37.00;24.50;;;;;;20976259;27;79884;-66
2021/09/07 11:11:32;;;;;;;7.40;2.90;;;39.40;22.70;;;;;;20973385;27;80842;-66
2021/09/07 11:21:34;;;;;;;8.93;2.35;;;41.00;20.30;;;;;;20974594;27;80745;-66
2021/09/07 11:31:36;;;;;;;7.32;2.78;;;43.30;18.60;;;;;;20974348;27;81804;-64
2021/09/07 11:41:38;;;;;;;6.53;2.10;;;44.90;18.10;;;;;;20972979;27;80792;-63
2021/09/07 11:51:46;;;;;;;7.78;2.30;;;46.40;16.60;;;;;;20971880;27;81891;-64
2021/09/07 12:01:49;;;;;;;10.40;2.58;;;49.00;15.50;;;;;;20954074;27;81993;-65
2021/09/07 12:12:03;;;;;;;5.60;2.67;;;48.90;14.50;;;;;;20970731;27;80610;-65
2021/09/07 12:22:21;;;;;;;6.20;2.80;;;49.70;14.30;;;;;;20971128;27;80940;-66
2021/09/07 12:32:22;;;;;;;7.43;3.47;;;42.70;17.60;;;;;;20952362;27;80745;-64
2021/09/07 12:42:28;;;;;;;13.32;2.78;;;40.40;20.30;;;;;;20968616;27;80724;-65
2021/09/07 12:52:29;;;;;;;9.10;2.85;;;41.00;18.80;;;;;;20968791;27;80011;-65
2021/09/07 13:02:31;;;;;;;6.20;2.38;;;47.90;14.90;;;;;;20968107;27;80734;-68
2021/09/07 13:12:34;;;;;;;5.30;2.33;;;43.90;17.00;;;;;;20968175;27;80978;-64
2021/09/07 13:22:35;;;;;;;11.50;2.47;;;42.60;17.10;;;;;;20972044;27;81178;-71
2021/09/07 13:32:38;;;;;;;9.73;2.90;;;41.40;17.90;;;;;;21052283;27;81899;-70
2021/09/07 13:42:41;;;;;;;6.30;2.60;;;45.20;16.00;;;;;;21065067;27;80559;-70
2021/09/07 13:52:43;;;;;;;14.13;3.13;;;45.50;15.80;;;;;;21046700;27;81231;-71
2021/09/07 14:02:46;;;;;;;6.32;2.45;;;44.90;15.80;;;;;;21064704;27;80910;-70
2021/09/07 14:12:49;;;;;;;13.52;2.97;;;46.50;15.80;;;;;;21045816;27;80705;-69
2021/09/07 14:22:51;;;;;;;7.55;3.22;;;45.20;16.10;;;;;;21063486;27;82157;-69
2021/09/07 14:32:53;;;;;;;5.25;2.70;;;43.00;17.30;;;;;;21044818;27;80875;-72
2021/09/07 14:42:55;;;;;;;9.00;2.70;;;42.50;17.50;;;;;;21062686;27;82169;-70
2021/09/07 14:52:57;;;;;;;11.95;3.20;;;43.10;17.60;;;;;;21061683;27;80398;-73
2021/09/07 15:02:59;;;;;;;10.23;3.40;;;43.40;17.00;;;;;;21061727;27;82127;-72
2021/09/07 15:13:02;;;;;;;17.20;3.85;;;46.90;15.20;;;;;;21060929;27;81894;-71
2021/09/07 15:23:04;;;;;;;7.97;2.70;;;46.70;15.50;;;;;;21038096;27;80985;-71
2021/09/07 15:33:06;;;;;;;6.70;3.08;;;43.60;16.20;;;;;;21049690;27;81344;-71
2021/09/07 15:43:10;;;;;;;12.57;2.83;;;41.00;18.20;;;;;;21059219;27;79980;-70
2021/09/07 15:53:12;;;;;;;10.05;3.42;;;38.70;20.10;;;;;;21057251;27;81739;-71
2021/09/07 16:03:14;;;;;;;13.60;2.85;;;39.20;20.00;;;;;;21054657;27;80742;-72
2021/09/07 16:13:16;;;;;;;8.90;2.20;;;38.80;20.50;;;;;;21057597;27;80811;-71
2021/09/07 16:23:18;;;;;;;6.65;2.65;;;38.30;20.70;;;;;;21038400;27;79962;-71
2021/09/07 16:33:20;;;;;;;10.02;2.03;;;36.90;21.90;;;;;;21056320;27;80019;-71
2021/09/07 16:43:22;;;;;;;8.50;3.00;;;36.20;22.00;;;;;;21037964;27;81226;-71
2021/09/07 16:53:27;;;;;;;5.45;1.88;;;35.20;22.20;;;;;;21055242;27;80773;-69
2021/09/07 17:03:31;;;;;;;8.77;2.30;;;34.70;22.60;;;;;;21054290;27;81831;-70
2021/09/07 17:13:36;;;;;;;8.18;2.38;;;34.70;22.70;;;;;;21060828;27;81844;-71
2021/09/07 17:23:38;;;;;;;7.20;2.53;;;34.50;23.70;;;;;;21067340;27;80766;-72
2021/09/07 17:44:00;;;;;;;10.63;2.75;;;34.50;24.60;;;;;;21062022;27;80556;-71
2021/09/07 17:54:01;;;;;;;7.05;2.50;;;33.70;26.00;;;;;;21065136;27;80096;-70
2021/09/07 18:04:03;;;;;;;12.30;3.50;;;32.90;27.00;;;;;;21063077;27;80909;-71
2021/09/07 18:14:05;;;;;;;44.63;12.15;;;32.30;27.90;;;;;;21062957;27;80061;-71
2021/09/07 18:24:09;;;;;;;21.88;5.30;;;31.80;29.20;;;;;;21049225;27;83643;-69
2021/09/07 18:34:11;;;;;;;7.95;2.53;;;31.40;29.80;;;;;;21055216;27;83328;-66
2021/09/07 18:44:13;;;;;;;16.15;6.07;;;31.00;30.50;;;;;;21052104;27;81686;-70
2021/09/07 18:54:15;;;;;;;9.98;3.83;;;30.70;31.70;;;;;;21052855;27;81847;-67
2021/09/07 19:04:17;;;;;;;10.73;2.80;;;30.50;32.30;;;;;;21057978;27;80726;-70
2021/09/07 19:14:18;;;;;;;12.63;3.33;;;30.30;32.70;;;;;;21060065;27;81829;-69
2021/09/07 19:24:19;;;;;;;9.40;3.65;;;30.10;33.10;;;;;;21037060;27;80858;-70
2021/09/07 19:34:21;;;;;;;11.52;3.65;;;29.90;33.70;;;;;;21039248;27;81883;-70
2021/09/07 19:44:23;;;;;;;12.55;3.10;;;29.70;34.30;;;;;;21057466;27;81731;-71
2021/09/07 19:54:24;;;;;;;10.52;3.00;;;29.50;34.80;;;;;;21037609;27;80799;-70
2021/09/07 20:04:27;;;;;;;8.95;3.22;;;29.30;35.50;;;;;;21056378;27;80733;-72
2021/09/07 20:14:29;;;;;;;8.30;3.50;;;29.10;35.80;;;;;;21038127;27;81808;-71
2021/09/07 20:24:30;;;;;;;8.73;3.72;;;28.90;36.40;;;;;;21055990;27;81538;-70
2021/09/07 20:34:32;;;;;;;9.05;3.22;;;28.70;36.90;;;;;;21037846;27;81697;-71
2021/09/07 20:44:34;;;;;;;12.73;3.78;;;28.50;37.60;;;;;;21033900;27;81518;-71
2021/09/07 20:54:36;;;;;;;10.27;3.65;;;28.30;38.40;;;;;;21001400;27;80505;-71
2021/09/07 21:04:38;;;;;;;12.88;4.70;;;28.10;38.40;;;;;;21025009;27;81772;-74
2021/09/07 21:14:40;;;;;;;13.10;4.88;;;27.90;39.50;;;;;;20968942;27;82024;-71
2021/09/07 21:24:43;;;;;;;7.78;3.30;;;27.80;39.40;;;;;;20950435;27;82156;-71
2021/09/07 21:34:44;;;;;;;6.25;3.28;;;27.70;39.70;;;;;;20978806;27;80795;-69
2021/09/07 21:44:46;;;;;;;6.88;2.63;;;27.60;39.60;;;;;;20965389;27;80721;-72
2021/09/07 21:54:48;;;;;;;6.25;2.88;;;27.50;39.90;;;;;;20966110;27;81754;-72
2021/09/07 22:04:50;;;;;;;10.23;2.75;;;27.40;40.30;;;;;;20979596;27;81249;-69
2021/09/07 22:14:52;;;;;;;7.90;3.00;;;27.20;40.80;;;;;;20993705;27;80826;-69
2021/09/07 22:24:54;;;;;;;6.75;2.45;;;27.10;41.40;;;;;;21031861;27;82093;-70
2021/09/07 22:34:56;;;;;;;6.03;2.60;;;26.90;41.90;;;;;;20992066;27;80021;-71
2021/09/07 22:44:58;;;;;;;8.93;3.85;;;26.70;42.40;;;;;;20970499;27;80769;-70
2021/09/07 22:54:59;;;;;;;11.63;5.75;;;26.60;43.00;;;;;;20958565;27;82143;-70
2021/09/07 23:05:01;;;;;;;7.00;3.58;;;26.50;43.50;;;;;;20975205;27;81861;-69
2021/09/07 23:15:04;;;;;;;5.57;3.22;;;26.30;43.70;;;;;;20972371;27;80828;-69
2021/09/07 23:25:06;;;;;;;5.93;2.75;;;26.10;44.30;;;;;;20955132;27;80894;-71
2021/09/07 23:35:09;;;;;;;6.50;2.97;;;25.90;45.00;;;;;;20955234;27;80827;-69
2021/09/07 23:45:13;;;;;;;8.52;2.40;;;25.70;45.40;;;;;;20954652;27;81677;-69
2021/09/07 23:55:14;;;;;;;5.75;1.90;;;25.70;45.70;;;;;;20973351;27;81873;-71
